Latest Coastal Weather Observations for Gold Coast Seaway

IDQ60701

Issued at 12:05 pm EST Tuesday 21 October 2014 (issued every 10 minutes, with the page automatically refreshed every 10 minutes)

About coastal observations | Map of coastal stations | Coastal observations for QLD | Marine services | Other Formats
Station Details ID: 040764 Name: GOLD COAST SEAWAY Lat: -27.94 Lon: 153.43 Height: 2.98 m
Data from the previous 72 hours. | See also: Recent months at Gold Coast Seaway
Date/Time
EST
Temp

°C
Wind Pressure Rain
since 9am
mm
Weather Cloud Vis
km
Sea
Height
m
Swell
Dir
 
Speed
knots
Gust
knots
hPa Trend Height
m
Period
s
Dir
21/12:00pm 25.4 SSE 19 23 1026.4 - 0.0 - - - - - - -
21/11:30am 24.7 SSE 21 26 1026.8 - 0.0 - - - - - - -
21/11:00am 24.8 S 21 27 1026.9 - 0.0 - - - - - - -
21/10:30am 23.7 SSE 22 27 1027.0 - 0.0 - - - - - - -
21/10:00am 23.9 S 23 28 1027.2 - 0.0 - - - - - - -
21/09:30am 23.5 S 22 27 1027.3 - 0.0 - - - - - - -
21/09:00am 22.9 S 22 28 1027.4 - 0.6 - - - - - - -
21/08:30am 21.9 S 24 30 1027.4 - 0.6 - - - - - - -
21/08:00am 21.2 S 21 26 1027.1 - 0.6 - - - - - - -
21/07:30am 20.8 S 20 27 1026.8 - 0.6 - - - - - - -
21/07:00am 19.9 S 20 26 1026.5 - 0.6 - - - - - - -
21/06:30am 19.3 S 18 22 1026.2 - 0.6 - - - - - - -
21/06:00am 18.8 S 14 19 1026.1 - 0.6 - - - - - - -
21/05:30am 19.3 SSE 17 22 1025.7 - 0.6 - - - - - - -
21/05:00am 19.1 SSE 19 24 1025.5 - 0.6 - - - - - - -
21/04:30am 18.7 S 15 21 1025.3 - 0.6 - - - - - - -
21/04:00am 18.3 S 14 18 1025.1 - 0.4 - - - - - - -
21/03:43am 18.9 S 16 26 1025.1 - 0.0 - - - - - - -
21/03:30am 19.7 S 14 22 1025.1 - 0.0 - - - - - - -
21/03:00am 19.4 S 7 10 1025.0 - 0.0 - - - - - - -
21/02:30am 19.3 SSW 5 7 1024.9 - 0.0 - - - - - - -
21/02:00am 19.4 S 8 12 1025.0 - 0.0 - - - - - - -
21/01:30am 18.9 S 8 11 1025.3 - 0.0 - - - - - - -
21/01:00am 18.9 S 8 13 1025.6 - 0.0 - - - - - - -
21/12:30am 19.6 S 13 16 1025.9 - 0.0 - - - - - - -
21/12:00am 19.3 S 11 14 1026.1 - 0.0 - - - - - - -
 
Date/Time
EST
Temp

°C
Wind Pressure Rain
since 9am
mm
Weather Cloud Vis
km
Sea
Height
m
Swell
Dir
 
Speed
knots
Gust
knots
hPa Trend Height
m
Period
s
Dir
20/11:30pm 19.3 S 13 16 1026.5 - 0.0 - - - - - - -
20/11:00pm 19.1 S 12 16 1026.6 - 0.0 - - - - - - -
20/10:30pm 19.3 S 13 16 1026.7 - 0.0 - - - - - - -
20/10:00pm 19.8 S 13 15 1026.8 - 0.0 - - - - - - -
20/09:30pm 20.1 S 15 18 1026.8 - 0.0 - - - - - - -
20/09:00pm 20.1 S 15 18 1026.7 - 0.0 - - - - - - -
20/08:30pm 20.1 S 17 20 1026.6 - 0.0 - - - - - - -
20/08:00pm 20.3 S 18 22 1026.3 - 0.0 - - - - - - -
20/07:30pm 20.6 SSE 16 21 1025.9 - 0.0 - - - - - - -
20/07:00pm 20.4 SE 15 18 1025.3 - 0.0 - - - - - - -
20/06:30pm 20.7 SE 14 18 1024.8 - 0.0 - - - - - - -
20/06:00pm 20.7 SE 10 12 1024.2 - 0.0 - - - - - - -
20/05:30pm 21.3 ESE 8 9 1023.8 - 0.0 - - - - - - -
20/05:00pm 22.0 E 8 9 1023.4 - 0.0 - - - - - - -
20/04:30pm 22.7 E 7 8 1023.1 - 0.0 - - - - - - -
20/04:00pm 22.8 ENE 8 9 1022.8 - 0.0 - - - - - - -
20/03:30pm 22.9 ENE 8 9 1022.6 - 0.0 - - - - - - -
20/03:00pm 24.0 ENE 9 10 1022.4 - 0.0 - - - - - - -
20/02:30pm 24.1 ENE 9 11 1022.6 - 0.0 - - - - - - -
20/02:00pm 24.0 ENE 11 13 1022.7 - 0.0 - - - - - - -
20/01:30pm 24.4 NE 11 13 1022.9 - 0.0 - - - - - - -
20/01:00pm 24.0 NE 13 15 1023.2 - 0.0 - - - - - - -
20/12:30pm 23.6 NE 14 16 1023.4 - 0.0 - - - - - - -
20/12:00pm 23.6 NE 14 17 1023.7 - 0.0 - - - - - - -
20/11:30am 24.1 NE 14 15 1024.1 - 0.0 - - - - - - -
20/11:00am 23.7 NE 13 15 1024.4 - 0.0 - - - - - - -
20/10:30am 23.5 NE 12 14 1024.8 - 0.0 - - - - - - -
20/10:00am 23.4 NE 10 12 1025.3 - 0.0 - - - - - - -
20/09:30am 23.3 NE 9 10 1025.4 - 0.0 - - - - - - -
20/09:00am 23.1 NNE 9 10 1025.4 - 0.0 - - - - - - -
20/08:30am 22.5 NNE 7 8 1025.6 - 0.0 - - - - - - -
20/08:00am 20.8 NW 5 8 1025.4 - 0.0 - - - - - - -
20/07:30am 20.0 NW 5 6 1025.5 - 0.0 - - - - - - -
20/07:00am 19.0 WNW 4 5 1025.4 - 0.0 - - - - - - -
20/06:30am 17.7 W 5 6 1025.1 - 0.0 - - - - - - -
20/06:00am 16.3 W 5 6 1024.9 - 0.0 - - - - - - -
20/05:30am 15.4 W 6 7 1024.7 - 0.0 - - - - - - -
20/05:00am 14.8 SW 6 7 1024.5 - 0.0 - - - - - - -
20/04:30am 15.2 W 5 6 1024.5 - 0.0 - - - - - - -
20/04:00am 15.3 WSW 5 6 1024.4 - 0.0 - - - - - - -
20/03:30am 15.3 WSW 6 7 1024.3 - 0.0 - - - - - - -
20/03:00am 15.5 WSW 5 7 1024.3 - 0.0 - - - - - - -
20/02:30am 15.8 WSW 6 6 1024.4 - 0.0 - - - - - - -
20/02:00am 16.1 SW 6 7 1024.7 - 0.0 - - - - - - -
20/01:30am 16.4 SW 6 7 1024.9 - 0.0 - - - - - - -
20/01:00am 16.8 SW 5 6 1025.4 - 0.0 - - - - - - -
20/12:30am 17.0 SW 6 7 1025.7 - 0.0 - - - - - - -
20/12:00am 17.0 SW 6 7 1025.9 - 0.0 - - - - - - -
 
Date/Time
EST
Temp

°C
Wind Pressure Rain
since 9am
mm
Weather Cloud Vis
km
Sea
Height
m
Swell
Dir
 
Speed
knots
Gust
knots
hPa Trend Height
m
Period
s
Dir
19/11:30pm 17.1 SE 1 4 1026.2 - 0.0 - - - - - - -
19/11:00pm 19.1 E 7 8 1026.6 - 0.0 - - - - - - -
19/10:30pm 19.3 E 8 10 1026.5 - 0.0 - - - - - - -
19/10:00pm 19.4 ESE 9 10 1026.5 - 0.0 - - - - - - -
19/09:30pm 19.5 E 9 12 1026.4 - 0.0 - - - - - - -
19/09:00pm 19.7 ESE 9 11 1026.3 - 0.0 - - - - - - -
19/08:30pm 19.7 E 11 14 1026.2 - 0.0 - - - - - - -
19/08:00pm 19.7 ESE 10 13 1026.0 - 0.0 - - - - - - -
19/07:30pm 19.8 ESE 11 14 1025.8 - 0.0 - - - - - - -
19/07:00pm 19.9 SE 11 15 1025.6 - 0.0 - - - - - - -
19/06:30pm 20.0 SE 12 15 1025.2 - 0.0 - - - - - - -
19/06:00pm 20.1 SE 13 16 1024.9 - 0.0 - - - - - - -
19/05:30pm 20.5 SE 14 17 1024.6 - 0.0 - - - - - - -
19/05:00pm 21.0 SE 15 18 1024.2 - 0.0 - - - - - - -
19/04:30pm 21.4 SE 15 17 1024.0 - 0.0 - - - - - - -
19/04:00pm 21.7 SE 15 17 1024.0 - 0.0 - - - - - - -
19/03:30pm 22.1 SE 17 20 1023.9 - 0.0 - - - - - - -
19/03:00pm 23.1 SE 16 19 1024.0 - 0.0 - - - - - - -
19/02:30pm 23.2 SE 17 20 1024.2 - 0.0 - - - - - - -
19/02:00pm 22.9 SE 18 20 1024.5 - 0.0 - - - - - - -
19/01:30pm 23.5 SE 18 21 1025.0 - 0.0 - - - - - - -
19/01:00pm 24.1 SE 17 20 1025.5 - 0.0 - - - - - - -
19/12:30pm 23.6 SE 18 20 1025.8 - 0.0 - - - - - - -
19/12:00pm 24.5 SE 18 20 1026.2 - 0.0 - - - - - - -
19/11:30am 23.8 SE 15 17 1026.6 - 0.0 - - - - - - -
19/11:00am 24.6 SE 15 18 1026.8 - 0.0 - - - - - - -
19/10:30am 23.6 SSE 13 15 1027.2 - 0.0 - - - - - - -
19/10:00am 24.4 SSE 12 14 1027.5 - 0.0 - - - - - - -
19/09:30am 24.1 SSE 11 13 1027.9 - 0.0 - - - - - - -
19/09:00am 23.2 SSE 11 14 1028.0 - 0.0 - - - - - - -
19/08:30am 22.9 S 12 14 1027.9 - 0.0 - - - - - - -
19/08:00am 21.0 S 11 14 1027.7 - 0.0 - - - - - - -
19/07:30am 21.5 S 11 14 1027.5 - 0.0 - - - - - - -
19/07:00am 20.0 S 7 10 1027.3 - 0.0 - - - - - - -
19/06:30am 18.5 SSW 7 9 1027.0 - 0.0 - - - - - - -
19/06:00am 17.4 SSW 7 9 1026.7 - 0.0 - - - - - - -
19/05:30am 16.3 SSW 7 9 1026.4 - 0.0 - - - - - - -
19/05:00am 16.2 SSW 8 10 1026.1 - 0.0 - - - - - - -
19/04:30am 16.0 SSW 7 9 1025.8 - 0.0 - - - - - - -
19/04:00am 16.1 SSW 7 9 1025.6 - 0.0 - - - - - - -
19/03:30am 16.2 S 8 10 1025.5 - 0.0 - - - - - - -
19/03:00am 16.7 SSW 8 10 1025.5 - 0.0 - - - - - - -
19/02:30am 16.7 S 9 10 1025.5 - 0.0 - - - - - - -
19/02:00am 17.2 SSW 9 11 1025.6 - 0.0 - - - - - - -
19/01:30am 17.3 SSW 8 10 1025.8 - 0.0 - - - - - - -
19/01:00am 17.7 S 10 13 1026.1 - 0.0 - - - - - - -
19/12:30am 18.3 S 13 16 1026.5 - 0.0 - - - - - - -
19/12:00am 18.4 S 13 17 1026.7 - 0.0 - - - - - - -
 
Date/Time
EST
Temp

°C
Wind Pressure Rain
since 9am
mm
Weather Cloud Vis
km
Sea
Height
m
Swell
Dir
 
Speed
knots
Gust
knots
hPa Trend Height
m
Period
s
Dir
18/11:30pm 18.3 S 13 16 1027.0 - 0.0 - - - - - - -
18/11:00pm 18.4 S 13 17 1027.0 - 0.0 - - - - - - -
18/10:30pm 18.4 S 11 15 1027.2 - 0.0 - - - - - - -
18/10:00pm 18.6 S 14 17 1027.3 - 0.0 - - - - - - -
18/09:30pm 18.4 S 14 16 1027.3 - 0.0 - - - - - - -
18/09:00pm 18.3 S 13 17 1027.1 - 0.0 - - - - - - -
18/08:30pm 18.5 S 14 17 1027.0 - 0.0 - - - - - - -
18/08:00pm 18.8 S 15 18 1026.9 - 0.0 - - - - - - -
18/07:30pm 19.0 S 18 21 1026.7 - 0.0 - - - - - - -
18/07:00pm 19.6 SSE 19 24 1026.3 - 0.0 - - - - - - -
18/06:30pm 19.5 SSE 19 24 1026.0 - 0.0 - - - - - - -
18/06:00pm 19.4 SSE 20 23 1025.7 - 0.0 - - - - - - -
18/05:30pm 19.7 SSE 20 24 1025.3 - 0.0 - - - - - - -
18/05:00pm 20.1 SSE 21 26 1024.7 - 0.0 - - - - - - -
18/04:30pm 20.1 SSE 21 26 1024.5 - 0.0 - - - - - - -
18/04:00pm 21.3 SSE 22 27 1024.3 - 0.0 - - - - - - -
18/03:30pm 21.0 SE 23 27 1024.1 - 0.0 - - - - - - -
18/03:00pm 22.1 SSE 24 29 1024.1 - 0.0 - - - - - - -
18/02:30pm 21.4 SSE 22 27 1024.3 - 0.0 - - - - - - -
18/02:00pm 21.6 SSE 23 27 1024.4 - 0.0 - - - - - - -
18/01:30pm 23.3 SSE 23 28 1024.6 - 0.0 - - - - - - -
18/01:00pm 24.3 SSE 20 26 1024.8 - 0.0 - - - - - - -
18/12:30pm 23.5 SSE 24 29 1024.8 - 0.0 - - - - - - -

Other Formats:

Comma delimited format used in spreadsheet applications
http://www.bom.gov.au/fwo/IDQ60701/IDQ60701.94580.axf

JavaScript Object Notation format (JSON) in row-major order
http://www.bom.gov.au/fwo/IDQ60701/IDQ60701.94580.json